Time;durP1;ratioP1;P1;durP2;ratioP2;P2;SDS_P1;SDS_P2;PMS_P1;PMS_P2;Temp;Humidity;BMP_temperature;BMP_pressure;BME280_temperature;BME280_humidity;BME280_pressure;Samples;Min_cycle;Max_cycle;Signal;HPM_P1;HPM_P2
2021/11/03 00:01:33;;;;;;;;;;;;;;;20.89;52.55;99840.00;7280187;19;152637;-48
2021/11/03 00:04:00;;;;;;;;;;;;;;;20.87;52.14;99843.16;7280127;19;152925;-52
2021/11/03 00:06:27;;;;;;;;;;;;;;;20.85;52.09;99839.84;7282464;19;151548;-52
2021/11/03 00:08:58;;;;;;;;;;;;;;;20.83;51.96;99842.19;7280802;19;153849;-51
2021/11/03 00:11:25;;;;;;;;;;;;;;;20.83;51.97;99843.00;7280819;19;152917;-52
2021/11/03 00:13:52;;;;;;;;;;;;;;;20.80;52.24;99837.25;7281185;19;151613;-52
2021/11/03 00:16:19;;;;;;;;;;;;;;;20.79;52.43;99838.41;7278839;19;152630;-51
2021/11/03 00:18:46;;;;;;;;;;;;;;;20.75;52.07;99838.25;7279823;19;153490;-50
2021/11/03 00:21:14;;;;;;;;;;;;;;;20.74;52.37;99839.41;7288558;19;151865;-52
2021/11/03 00:23:41;;;;;;;;;;;;;;;20.68;52.36;99840.75;7280072;19;153608;-52
2021/11/03 00:26:08;;;;;;;;;;;;;;;20.65;52.10;99844.25;7282797;19;151748;-53
2021/11/03 00:28:35;;;;;;;;;;;;;;;20.63;52.21;99840.09;7281514;19;154207;-52
2021/11/03 00:31:02;;;;;;;;;;;;;;;20.62;52.32;99846.91;7279812;19;153963;-52
2021/11/03 00:33:30;;;;;;;;;;;;;;;20.56;52.58;99839.81;7282215;19;151604;-50
2021/11/03 00:35:58;;;;;;;;;;;;;;;20.53;51.89;99846.09;7279690;19;153219;-51
2021/11/03 00:38:25;;;;;;;;;;;;;;;20.48;52.12;99835.88;7278911;19;153432;-52
2021/11/03 00:40:52;;;;;;;;;;;;;;;20.46;50.22;99843.81;7279749;19;152236;-53
2021/11/03 00:43:19;;;;;;;;;;;;;;;20.34;47.65;99836.09;7286117;19;152967;-52
2021/11/03 00:45:47;;;;;;;;;;;;;;;20.34;49.10;99843.69;7278277;19;151862;-52
2021/11/03 00:48:14;;;;;;;;;;;;;;;20.32;50.11;99837.56;7281801;19;152934;-51
2021/11/03 00:50:41;;;;;;;;;;;;;;;20.27;50.21;99840.53;7280666;19;154055;-50
2021/11/03 00:53:08;;;;;;;;;;;;;;;20.29;50.64;99841.84;7286847;19;152059;-51
2021/11/03 00:55:35;;;;;;;;;;;;;;;20.28;50.69;99842.19;7284775;19;153687;-51
2021/11/03 00:58:03;;;;;;;;;;;;;;;20.22;51.09;99843.50;7284982;19;153961;-51
2021/11/03 01:00:30;;;;;;;;;;;;;;;20.23;50.88;99842.34;7286484;19;152010;-51
2021/11/03 01:02:57;;;;;;;;;;;;;;;20.24;51.15;99836.41;7285512;19;153615;-51
2021/11/03 01:05:25;;;;;;;;;;;;;;;20.24;51.37;99846.81;7294602;19;152211;-52
2021/11/03 01:07:52;;;;;;;;;;;;;;;20.23;51.23;99831.13;7287481;19;153695;-51
2021/11/03 01:10:21;;;;;;;;;;;;;;;20.24;50.95;99833.63;7286637;19;154893;-51
2021/11/03 01:12:48;;;;;;;;;;;;;;;20.20;51.32;99826.19;7286110;19;152204;-51
2021/11/03 01:15:16;;;;;;;;;;;;;;;20.21;51.01;99834.28;7285336;19;153298;-52
2021/11/03 01:17:44;;;;;;;;;;;;;;;20.17;50.99;99829.69;7284600;19;153325;-52
2021/11/03 01:20:13;;;;;;;;;;;;;;;20.15;51.47;99840.41;7286480;19;152135;-51
2021/11/03 01:22:41;;;;;;;;;;;;;;;20.11;51.05;99840.25;7285675;19;152786;-51
2021/11/03 01:25:09;;;;;;;;;;;;;;;20.16;51.61;99842.03;7281256;19;153274;-51
2021/11/03 01:27:35;;;;;;;;;;;;;;;20.13;51.60;99846.31;7292018;19;151817;-51
2021/11/03 01:30:06;;;;;;;;;;;;;;;20.08;51.46;99837.28;7285529;19;154186;-51
2021/11/03 01:32:33;;;;;;;;;;;;;;;20.06;51.54;99848.81;7285146;19;152390;-51
2021/11/03 01:34:59;;;;;;;;;;;;;;;20.03;51.62;99852.31;7286982;19;153389;-51
2021/11/03 01:37:26;;;;;;;;;;;;;;;20.04;52.02;99845.50;7285192;19;153291;-50
2021/11/03 01:39:53;;;;;;;;;;;;;;;20.01;52.02;99851.78;7287407;19;152157;-51
2021/11/03 01:42:20;;;;;;;;;;;;;;;19.97;52.00;99845.19;7285521;19;153106;-51
2021/11/03 01:44:47;;;;;;;;;;;;;;;20.00;51.92;99852.94;7282137;19;153694;-51
2021/11/03 01:47:24;;;;;;;;;;;;;;;19.99;51.74;99857.72;7295634;19;151596;-51
2021/11/03 01:49:50;;;;;;;;;;;;;;;20.01;51.95;99853.78;7284038;19;153473;-52
2021/11/03 01:52:17;;;;;;;;;;;;;;;19.97;51.68;99859.22;7285154;19;151645;-51
2021/11/03 01:54:47;;;;;;;;;;;;;;;19.93;51.86;99859.06;7285349;19;153472;-51
2021/11/03 01:57:16;;;;;;;;;;;;;;;19.91;52.01;99858.56;7283613;19;154111;-51
2021/11/03 01:59:44;;;;;;;;;;;;;;;19.90;52.09;99856.91;7284021;19;151768;-51
2021/11/03 02:02:13;;;;;;;;;;;;;;;19.92;52.34;99863.03;7279970;19;154302;-50
2021/11/03 02:04:41;;;;;;;;;;;;;;;19.88;52.36;99866.81;7282425;19;155394;-51
2021/11/03 02:07:10;;;;;;;;;;;;;;;19.85;52.21;99867.47;7283517;19;151596;-51
2021/11/03 02:09:37;;;;;;;;;;;;;;;19.79;52.59;99869.63;7290963;19;153212;-51
2021/11/03 02:12:04;;;;;;;;;;;;;;;19.82;52.42;99868.94;7286413;19;152097;-51
2021/11/03 02:14:32;;;;;;;;;;;;;;;19.83;52.25;99872.59;7286529;19;153319;-51
2021/11/03 02:16:59;;;;;;;;;;;;;;;19.83;52.34;99873.41;7282957;19;153646;-51
2021/11/03 02:19:29;;;;;;;;;;;;;;;19.78;52.66;99875.53;7285603;19;151776;-51
2021/11/03 02:22:05;;;;;;;;;;;;;;;19.79;52.66;99869.63;7285023;19;153053;-51
2021/11/03 02:24:36;;;;;;;;;;;;;;;19.76;52.77;99870.25;7285205;19;153371;-52
2021/11/03 02:27:03;;;;;;;;;;;;;;;19.75;52.79;99871.44;7283996;19;152157;-51
2021/11/03 02:29:30;;;;;;;;;;;;;;;19.71;52.57;99873.25;7284013;19;153188;-51
2021/11/03 02:32:10;;;;;;;;;;;;;;;19.72;52.44;99874.88;7291316;19;153799;-51
2021/11/03 02:34:36;;;;;;;;;;;;;;;19.74;52.83;99875.38;7284248;19;152705;-51
2021/11/03 02:37:23;;;;;;;;;;;;;;;19.74;52.56;99869.78;7281537;19;153883;-51
2021/11/03 02:39:54;;;;;;;;;;;;;;;19.70;52.77;99881.97;7284226;19;152082;-51
2021/11/03 02:42:21;;;;;;;;;;;;;;;19.72;52.59;99868.44;7284068;19;153066;-51
2021/11/03 02:44:48;;;;;;;;;;;;;;;19.73;52.98;99870.94;7281627;19;154216;-51
2021/11/03 02:47:14;;;;;;;;;;;;;;;19.70;52.57;99874.41;7282361;19;152584;-51
2021/11/03 02:49:42;;;;;;;;;;;;;;;19.68;52.99;99875.88;7282532;19;152633;-51
2021/11/03 02:52:12;;;;;;;;;;;;;;;19.69;53.01;99875.56;7281729;19;153878;-51
2021/11/03 02:54:39;;;;;;;;;;;;;;;19.67;53.03;99879.84;7291346;19;152093;-50
2021/11/03 02:57:07;;;;;;;;;;;;;;;19.66;52.97;99879.00;7280209;19;154063;-51
2021/11/03 02:59:47;;;;;;;;;;;;;;;19.68;52.71;99871.09;7285201;19;151867;-51
2021/11/03 03:02:14;;;;;;;;;;;;;;;19.64;52.73;99880.47;7280349;19;152845;-50
2021/11/03 03:04:42;;;;;;;;;;;;;;;19.62;53.12;99883.63;7284184;19;153722;-51
2021/11/03 03:07:10;;;;;;;;;;;;;;;19.59;52.90;99884.28;7282643;19;151922;-51
2021/11/03 03:09:37;;;;;;;;;;;;;;;19.57;52.93;99875.38;7282499;19;153695;-52
2021/11/03 03:12:06;;;;;;;;;;;;;;;19.57;52.82;99883.78;7281875;19;153302;-51
2021/11/03 03:14:36;;;;;;;;;;;;;;;19.56;53.13;99878.50;7282521;19;151911;-51
2021/11/03 03:17:05;;;;;;;;;;;;;;;19.54;52.92;99876.00;7287015;19;152764;-51
2021/11/03 03:19:32;;;;;;;;;;;;;;;19.48;53.41;99878.19;7282306;19;152276;-51
2021/11/03 03:21:59;;;;;;;;;;;;;;;19.51;53.06;99876.69;7283614;19;152157;-51
2021/11/03 03:24:26;;;;;;;;;;;;;;;19.47;53.28;99873.72;7281428;19;153307;-51
2021/11/03 03:26:53;;;;;;;;;;;;;;;19.45;53.01;99881.63;7282795;19;152255;-51
2021/11/03 03:29:20;;;;;;;;;;;;;;;19.51;53.42;99885.09;7284464;19;152964;-51
2021/11/03 03:31:47;;;;;;;;;;;;;;;19.45;53.31;99884.41;7283061;19;154025;-51
2021/11/03 03:34:15;;;;;;;;;;;;;;;19.42;53.15;99892.63;7281335;19;152251;-52
2021/11/03 03:36:43;;;;;;;;;;;;;;;19.44;53.04;99895.97;7280007;19;152669;-52
2021/11/03 03:39:11;;;;;;;;;;;;;;;19.40;53.04;99889.31;7291059;19;153307;-52
2021/11/03 03:41:39;;;;;;;;;;;;;;;19.40;53.52;99897.72;7284323;19;153130;-51
2021/11/03 03:44:06;;;;;;;;;;;;;;;19.39;53.28;99890.47;7280978;19;153326;-51
2021/11/03 03:46:33;;;;;;;;;;;;;;;19.37;53.57;99898.38;7282167;19;151828;-52
2021/11/03 03:49:00;;;;;;;;;;;;;;;19.34;53.38;99899.88;7282056;19;152741;-51
2021/11/03 03:51:27;;;;;;;;;;;;;;;19.35;53.48;99903.50;7280106;19;153587;-51
2021/11/03 03:53:54;;;;;;;;;;;;;;;19.32;53.23;99909.72;7282455;19;152439;-51
2021/11/03 03:56:21;;;;;;;;;;;;;;;19.30;53.51;99907.28;7281845;19;153113;-51
2021/11/03 03:58:49;;;;;;;;;;;;;;;19.30;53.39;99912.03;7285703;19;153652;-51
2021/11/03 04:01:17;;;;;;;;;;;;;;;19.29;53.48;99908.41;7282006;19;152608;-52
2021/11/03 04:03:44;;;;;;;;;;;;;;;19.29;53.58;99918.78;7279771;19;153737;-51
2021/11/03 04:06:11;;;;;;;;;;;;;;;19.33;53.50;99914.19;7281296;19;151886;-50
2021/11/03 04:08:38;;;;;;;;;;;;;;;19.27;53.72;99915.47;7282996;19;152596;-51
2021/11/03 04:11:05;;;;;;;;;;;;;;;19.28;53.44;99919.94;7281905;19;153245;-51
2021/11/03 04:13:33;;;;;;;;;;;;;;;19.24;53.49;99918.94;7280971;19;152317;-51
2021/11/03 04:16:00;;;;;;;;;;;;;;;19.28;53.25;99914.34;7280411;19;153326;-51
2021/11/03 04:18:27;;;;;;;;;;;;;;;19.24;53.28;99921.72;7281744;19;153363;-50
2021/11/03 04:20:56;;;;;;;;;;;;;;;19.28;53.36;99920.75;7289777;19;151803;-51
2021/11/03 04:23:23;;;;;;;;;;;;;;;19.23;53.29;99929.31;7278640;19;153961;-51
2021/11/03 04:25:50;;;;;;;;;;;;;;;19.23;53.17;99925.69;7281373;19;151992;-50
2021/11/03 04:28:17;;;;;;;;;;;;;;;19.20;53.32;99926.34;7286536;19;151867;-52
2021/11/03 04:30:44;;;;;;;;;;;;;;;19.19;53.26;99927.47;7288334;19;154386;-51
2021/11/03 04:33:11;;;;;;;;;;;;;;;19.15;53.72;99924.50;7285278;19;152203;-51
2021/11/03 04:35:38;;;;;;;;;;;;;;;19.15;53.65;99920.88;7289301;19;152870;-51
2021/11/03 04:38:05;;;;;;;;;;;;;;;19.15;53.54;99930.13;7285599;19;153054;-50
2021/11/03 04:40:32;;;;;;;;;;;;;;;19.13;53.61;99931.56;7289501;19;152605;-51
2021/11/03 04:42:59;;;;;;;;;;;;;;;19.14;53.64;99928.47;7292053;19;153333;-52
2021/11/03 04:45:26;;;;;;;;;;;;;;;19.12;53.73;99927.13;7286781;19;152283;-51
2021/11/03 04:47:54;;;;;;;;;;;;;;;19.03;53.93;99941.09;7288415;19;153175;-51
2021/11/03 04:50:23;;;;;;;;;;;;;;;19.06;54.18;99937.66;7285802;19;153316;-51
2021/11/03 04:52:50;;;;;;;;;;;;;;;19.05;53.84;99942.41;7286131;19;152445;-51
2021/11/03 04:55:17;;;;;;;;;;;;;;;19.06;54.21;99941.28;7287778;19;153223;-51
2021/11/03 04:57:48;;;;;;;;;;;;;;;19.05;54.11;99942.41;7283600;19;153369;-52
2021/11/03 05:00:19;;;;;;;;;;;;;;;19.07;54.03;99942.94;7286261;19;151879;-52
2021/11/03 05:02:46;;;;;;;;;;;;;;;19.07;53.77;99944.91;7287915;19;151995;-52
2021/11/03 05:05:13;;;;;;;;;;;;;;;19.04;53.75;99945.53;7294427;19;153365;-51
2021/11/03 05:07:41;;;;;;;;;;;;;;;19.01;53.99;99952.63;7287902;19;154507;-53
2021/11/03 05:10:08;;;;;;;;;;;;;;;18.97;54.13;99946.00;7287586;19;153403;-51
2021/11/03 05:12:35;;;;;;;;;;;;;;;18.96;53.83;99943.53;7287988;19;151577;-52
2021/11/03 05:15:02;;;;;;;;;;;;;;;18.97;54.17;99943.22;7287618;19;152635;-52
2021/11/03 05:17:29;;;;;;;;;;;;;;;18.96;54.12;99947.16;7282703;19;153016;-52
2021/11/03 05:19:56;;;;;;;;;;;;;;;18.95;54.14;99953.91;7286020;19;151605;-51
2021/11/03 05:22:25;;;;;;;;;;;;;;;18.92;54.27;99956.53;7285833;19;152677;-51
2021/11/03 05:24:53;;;;;;;;;;;;;;;18.94;54.30;99965.44;7286588;19;153551;-52
2021/11/03 05:27:21;;;;;;;;;;;;;;;18.91;54.14;99975.28;7294831;19;152425;-52
2021/11/03 05:29:48;;;;;;;;;;;;;;;18.93;53.84;99973.00;7284382;19;153533;-52
2021/11/03 05:32:15;;;;;;;;;;;;;;;18.90;53.94;99967.19;7286699;19;152343;-51
2021/11/03 05:34:42;;;;;;;;;;;;;;;18.90;54.15;99962.44;7285328;19;153643;-52
2021/11/03 05:37:14;;;;;;;;;;;;;;;18.85;54.35;99961.75;7280704;19;153327;-51
2021/11/03 05:39:41;;;;;;;;;;;;;;;18.80;54.33;99964.69;7286475;19;151900;-51
2021/11/03 05:42:08;;;;;;;;;;;;;;;18.80;54.62;99970.28;7284753;19;152592;-52
2021/11/03 05:44:36;;;;;;;;;;;;;;;18.92;54.66;99959.31;7286217;19;153735;-51
2021/11/03 05:47:03;;;;;;;;;;;;;;;18.96;55.30;99961.16;7283533;19;152559;-52
2021/11/03 05:49:32;;;;;;;;;;;;;;;19.01;55.17;99963.81;7292026;19;153374;-52
2021/11/03 05:51:59;;;;;;;;;;;;;;;19.03;55.47;99963.50;7284326;19;152119;-51
2021/11/03 05:54:27;;;;;;;;;;;;;;;19.05;55.66;99959.22;7283515;19;151879;-51
2021/11/03 05:56:55;;;;;;;;;;;;;;;19.07;55.71;99962.53;7282665;19;153299;-51
2021/11/03 05:59:22;;;;;;;;;;;;;;;19.11;55.71;99965.50;7284796;19;152574;-51
2021/11/03 06:01:50;;;;;;;;;;;;;;;19.15;56.17;99974.09;7282529;19;154205;-51
2021/11/03 06:04:17;;;;;;;;;;;;;;;19.19;56.27;99972.28;7282991;19;153069;-52
2021/11/03 06:06:44;;;;;;;;;;;;;;;19.23;56.49;99979.72;7284039;19;151920;-52
2021/11/03 06:09:11;;;;;;;;;;;;;;;19.27;56.79;99975.13;7290862;19;153410;-52
2021/11/03 06:11:40;;;;;;;;;;;;;;;19.32;56.66;99980.56;7284122;19;151738;-52
2021/11/03 06:14:08;;;;;;;;;;;;;;;19.37;56.39;99982.41;7283996;19;153830;-52
2021/11/03 06:16:34;;;;;;;;;;;;;;;19.42;56.10;99985.06;7282098;19;154124;-52
2021/11/03 06:19:02;;;;;;;;;;;;;;;19.46;55.95;99984.13;7285869;19;151703;-52
2021/11/03 06:21:29;;;;;;;;;;;;;;;19.51;56.22;99986.78;7283909;19;153846;-51
2021/11/03 06:23:55;;;;;;;;;;;;;;;19.57;55.97;99987.47;7284619;19;153118;-53
2021/11/03 06:26:23;;;;;;;;;;;;;;;19.61;55.63;99991.25;7284489;19;151729;-52
2021/11/03 06:28:51;;;;;;;;;;;;;;;19.67;55.39;99987.13;7284435;19;153083;-52
2021/11/03 06:31:18;;;;;;;;;;;;;;;19.74;55.45;99992.28;7290652;19;153945;-52
2021/11/03 06:33:50;;;;;;;;;;;;;;;19.79;55.00;99998.56;7285865;19;153084;-52
2021/11/03 06:36:18;;;;;;;;;;;;;;;19.84;54.86;99998.41;7282752;19;152256;-51
2021/11/03 06:38:44;;;;;;;;;;;;;;;19.89;55.22;100005.84;7279488;19;152772;-52
2021/11/03 06:41:11;;;;;;;;;;;;;;;19.95;54.80;100010.09;7286523;19;154026;-52
2021/11/03 06:43:38;;;;;;;;;;;;;;;19.99;54.53;100002.69;7284609;19;154604;-52
2021/11/03 06:46:06;;;;;;;;;;;;;;;20.04;54.34;100005.34;7283020;19;152386;-52
2021/11/03 06:48:33;;;;;;;;;;;;;;;20.09;54.50;100010.78;7282331;19;153069;-52
2021/11/03 06:51:00;;;;;;;;;;;;;;;20.13;54.19;100005.34;7284886;19;153755;-51
2021/11/03 06:53:27;;;;;;;;;;;;;;;20.19;54.03;100007.66;7290618;19;152023;-52
2021/11/03 06:55:55;;;;;;;;;;;;;;;20.24;54.38;100012.28;7283207;19;153247;-50
2021/11/03 06:58:22;;;;;;;;;;;;;;;20.29;53.92;100012.13;7281220;19;151768;-52
2021/11/03 07:00:50;;;;;;;;;;;;;;;20.31;54.24;100015.44;7282881;19;152981;-49
2021/11/03 07:03:19;;;;;;;;;;;;;;;20.36;54.36;100010.50;7281640;19;152467;-51
2021/11/03 07:05:46;;;;;;;;;;;;;;;20.41;54.00;100007.53;7283618;19;151601;-51
2021/11/03 07:08:14;;;;;;;;;;;;;;;20.44;54.44;100011.69;7284899;19;153710;-51
2021/11/03 07:10:46;;;;;;;;;;;;;;;20.48;54.39;100015.47;7280647;19;153460;-50
2021/11/03 07:13:13;;;;;;;;;;;;;;;20.52;54.09;100018.44;7281814;19;152018;-50
2021/11/03 07:15:42;;;;;;;;;;;;;;;20.55;54.19;100012.97;7288196;19;153416;-51
2021/11/03 07:18:12;;;;;;;;;;;;;;;20.64;54.05;100004.53;7280519;19;152222;-51
2021/11/03 07:20:42;;;;;;;;;;;;;;;20.73;54.54;100013.78;7282554;19;153415;-50
2021/11/03 07:23:10;;;;;;;;;;;;;;;20.76;54.57;100018.72;7280302;19;153675;-51
2021/11/03 07:25:37;;;;;;;;;;;;;;;20.83;54.05;100021.88;7283052;19;151750;-51
2021/11/03 07:28:04;;;;;;;;;;;;;;;20.84;52.67;100013.13;7283834;19;153709;-51
2021/11/03 07:30:33;;;;;;;;;;;;;;;20.85;51.85;100025.97;7282165;19;153673;-51
2021/11/03 07:33:00;;;;;;;;;;;;;;;20.91;51.09;100031.41;7282181;19;153578;-51
2021/11/03 07:35:27;;;;;;;;;;;;;;;20.89;51.34;100040.19;7285085;19;152369;-52
2021/11/03 07:37:55;;;;;;;;;;;;;;;20.91;50.80;100035.06;7287593;19;155022;-52
2021/11/03 07:40:24;;;;;;;;;;;;;;;20.93;50.03;100038.38;7282886;19;153780;-51
2021/11/03 07:42:51;;;;;;;;;;;;;;;20.92;50.01;100036.72;7281409;19;153420;-52
2021/11/03 07:45:19;;;;;;;;;;;;;;;20.92;49.87;100047.94;7276948;19;152344;-52
2021/11/03 07:47:46;;;;;;;;;;;;;;;20.95;49.48;100052.88;7282742;19;152685;-52
2021/11/03 07:50:15;;;;;;;;;;;;;;;20.94;49.12;100054.03;7281274;19;153899;-54
2021/11/03 07:52:42;;;;;;;;;;;;;;;20.95;48.67;100055.69;7281352;19;151703;-51
2021/11/03 07:55:09;;;;;;;;;;;;;;;20.99;48.83;100058.66;7281928;19;152695;-52
2021/11/03 07:57:37;;;;;;;;;;;;;;;20.99;48.36;100062.28;7277685;19;152931;-51
2021/11/03 08:00:07;;;;;;;;;;;;;;;21.01;48.35;100073.19;7289259;19;152678;-52
2021/11/03 08:02:34;;;;;;;;;;;;;;;21.02;49.07;100072.06;7283258;19;153093;-52
2021/11/03 08:05:01;;;;;;;;;;;;;;;21.04;47.92;100080.94;7289440;19;152209;-51
2021/11/03 08:07:28;;;;;;;;;;;;;;;21.02;47.63;100080.47;7288696;19;152906;-51
2021/11/03 08:09:57;;;;;;;;;;;;;;;21.02;47.64;100083.28;7288352;19;154589;-51
2021/11/03 08:12:25;;;;;;;;;;;;;;;21.01;47.31;100090.88;7290144;19;151709;-52
2021/11/03 08:14:53;;;;;;;;;;;;;;;21.03;47.08;100084.94;7288164;19;153083;-51
2021/11/03 08:17:21;;;;;;;;;;;;;;;21.01;46.88;100090.06;7286174;19;152504;-52
2021/11/03 08:19:52;;;;;;;;;;;;;;;21.00;46.98;100088.41;7295144;19;151822;-53
2021/11/03 08:22:23;;;;;;;;;;;;;;;20.98;47.20;100099.16;7286178;19;153233;-52
2021/11/03 08:24:51;;;;;;;;;;;;;;;20.91;45.70;100105.25;7287757;19;152229;-52
2021/11/03 08:27:19;;;;;;;;;;;;;;;20.94;45.92;100103.78;7287746;19;153457;-50
2021/11/03 08:29:46;;;;;;;;;;;;;;;20.96;45.86;100109.88;7287168;19;153324;-51
2021/11/03 08:32:18;;;;;;;;;;;;;;;20.93;46.42;100105.75;7287223;19;151866;-51
2021/11/03 08:34:48;;;;;;;;;;;;;;;20.91;46.05;100110.88;7287920;19;152868;-54
2021/11/03 08:37:18;;;;;;;;;;;;;;;20.92;46.14;100108.91;7288289;19;152189;-52
2021/11/03 08:39:49;;;;;;;;;;;;;;;20.90;46.04;100111.19;7287065;19;152015;-52
2021/11/03 08:42:17;;;;;;;;;;;;;;;20.88;46.42;100107.91;7294097;19;153376;-52
2021/11/03 08:44:44;;;;;;;;;;;;;;;20.84;46.07;100105.78;7287235;19;152153;-51
2021/11/03 08:47:12;;;;;;;;;;;;;;;20.84;46.09;100116.19;7287005;19;152558;-51
2021/11/03 08:49:39;;;;;;;;;;;;;;;20.81;46.44;100114.84;7284662;19;153405;-52
2021/11/03 08:52:06;;;;;;;;;;;;;;;20.79;46.33;100114.34;7286492;19;151817;-51
2021/11/03 08:54:36;;;;;;;;;;;;;;;20.82;46.49;100113.69;7286536;19;152633;-50
2021/11/03 08:57:20;;;;;;;;;;;;;;;20.83;47.29;100117.31;7284631;19;154178;-50
2021/11/03 08:59:52;;;;;;;;;;;;;;;20.78;46.99;100121.13;7285414;19;151853;-50
2021/11/03 09:02:21;;;;;;;;;;;;;;;20.76;47.33;100115.00;7283883;19;152595;-51
2021/11/03 09:04:49;;;;;;;;;;;;;;;20.74;47.68;100114.53;7293028;19;152137;-51
2021/11/03 09:07:16;;;;;;;;;;;;;;;20.69;47.72;100114.69;7286863;19;153274;-51
2021/11/03 09:09:45;;;;;;;;;;;;;;;20.70;47.46;100121.13;7287071;19;152189;-51
2021/11/03 09:12:13;;;;;;;;;;;;;;;20.68;47.51;100117.81;7284811;19;153623;-51
2021/11/03 09:14:41;;;;;;;;;;;;;;;20.67;47.98;100128.22;7266596;19;153650;-50
2021/11/03 09:17:09;;;;;;;;;;;;;;;20.66;47.64;100126.56;7277349;19;153947;-51
2021/11/03 09:19:37;;;;;;;;;;;;;;;20.65;47.80;100124.91;7284975;19;152584;-51
2021/11/03 09:22:06;;;;;;;;;;;;;;;20.66;48.16;100129.38;7285842;19;152545;-50
2021/11/03 09:24:35;;;;;;;;;;;;;;;20.66;48.47;100136.97;7286735;19;153774;-50
2021/11/03 09:27:12;;;;;;;;;;;;;;;20.67;50.48;100133.03;7294605;19;151746;-51
2021/11/03 09:29:39;;;;;;;;;;;;;;;20.66;49.90;100134.16;7283375;19;152815;-50
2021/11/03 09:32:11;;;;;;;;;;;;;;;20.69;50.07;100136.31;7288410;19;151727;-51
2021/11/03 09:34:39;;;;;;;;;;;;;;;20.71;49.86;100134.84;7287232;19;153575;-51
2021/11/03 09:37:07;;;;;;;;;;;;;;;20.72;50.41;100133.66;7286873;19;153359;-51
2021/11/03 09:39:38;;;;;;;;;;;;;;;20.70;50.06;100146.38;7283378;19;152311;-51
2021/11/03 09:42:06;;;;;;;;;;;;;;;20.73;49.12;100134.50;7288885;19;152517;-51
2021/11/03 09:44:34;;;;;;;;;;;;;;;20.71;49.39;100137.66;7286971;19;152270;-50
2021/11/03 09:47:03;;;;;;;;;;;;;;;20.67;48.71;100133.03;7284991;19;152263;-51
2021/11/03 09:49:36;;;;;;;;;;;;;;;20.65;48.92;100135.31;7292369;19;152621;-50
2021/11/03 09:52:14;;;;;;;;;;;;;;;20.67;48.91;100127.41;7285220;19;152231;-50
2021/11/03 09:54:44;;;;;;;;;;;;;;;20.68;49.29;100135.47;7287034;19;152265;-51
2021/11/03 09:57:19;;;;;;;;;;;;;;;20.68;48.72;100132.66;7282678;19;153300;-52
2021/11/03 09:59:48;;;;;;;;;;;;;;;20.67;48.65;100142.25;7284198;19;152013;-50
2021/11/03 10:02:21;;;;;;;;;;;;;;;20.68;48.54;100145.88;7283477;19;153378;-50
2021/11/03 10:04:56;;;;;;;;;;;;;;;20.69;48.46;100139.13;7285753;19;153984;-51
2021/11/03 10:07:26;;;;;;;;;;;;;;;20.66;48.35;100142.59;7287104;19;152748;-51
2021/11/03 10:09:53;;;;;;;;;;;;;;;20.67;48.38;100150.66;7286630;19;153274;-51
2021/11/03 10:12:20;;;;;;;;;;;;;;;20.61;47.97;100154.81;7290315;19;151886;-51
2021/11/03 10:14:47;;;;;;;;;;;;;;;20.65;48.20;100146.53;7285071;19;152956;-53
2021/11/03 10:17:17;;;;;;;;;;;;;;;20.60;48.21;100143.91;7285366;19;154080;-51
2021/11/03 10:19:44;;;;;;;;;;;;;;;20.58;47.87;100140.59;7284250;19;151830;-51
2021/11/03 10:22:22;;;;;;;;;;;;;;;20.53;48.26;100150.00;7283861;19;154172;-51
2021/11/03 10:24:52;;;;;;;;;;;;;;;20.51;47.83;100151.47;7280348;19;153937;-51
2021/11/03 10:27:20;;;;;;;;;;;;;;;20.49;48.05;100157.41;7284880;19;151937;-51
2021/11/03 10:29:49;;;;;;;;;;;;;;;20.52;48.08;100158.75;7284164;19;154829;-50
2021/11/03 10:32:19;;;;;;;;;;;;;;;20.50;48.08;100161.03;7290199;19;154047;-51
2021/11/03 10:34:49;;;;;;;;;;;;;;;20.52;47.78;100162.38;7282705;19;152063;-50
2021/11/03 10:37:24;;;;;;;;;;;;;;;20.48;48.08;100158.59;7265946;19;152567;-51
2021/11/03 10:39:57;;;;;;;;;;;;;;;20.50;48.08;100166.66;7280415;19;152291;-51
2021/11/03 10:42:45;;;;;;;;;;;;;;;20.51;48.23;100169.16;7284667;19;153257;-51
2021/11/03 10:45:19;;;;;;;;;;;;;;;20.51;48.01;100174.75;7282976;19;153475;-51
2021/11/03 10:47:50;;;;;;;;;;;;;;;20.51;47.93;100169.16;7283653;19;152206;-51
2021/11/03 10:50:29;;;;;;;;;;;;;;;20.50;48.36;100170.28;7283987;19;153204;-50
2021/11/03 10:53:00;;;;;;;;;;;;;;;20.48;47.93;100172.63;7282946;19;154462;-50
2021/11/03 10:55:28;;;;;;;;;;;;;;;20.48;47.93;100175.41;7291478;19;151913;-51
2021/11/03 10:58:03;;;;;;;;;;;;;;;20.47;48.02;100170.13;7282369;19;153145;-51
2021/11/03 11:00:34;;;;;;;;;;;;;;;20.47;48.25;100172.94;7285363;19;152041;-51
2021/11/03 11:03:04;;;;;;;;;;;;;;;20.46;47.94;100174.91;7283166;19;153512;-50
2021/11/03 11:05:33;;;;;;;;;;;;;;;20.47;48.16;100175.75;7281924;19;154353;-51
2021/11/03 11:08:14;;;;;;;;;;;;;;;20.46;47.80;100174.06;7282751;19;152407;-51
2021/11/03 11:10:45;;;;;;;;;;;;;;;20.46;48.04;100176.88;7283895;19;152717;-50
2021/11/03 11:13:19;;;;;;;;;;;;;;;20.47;48.01;100176.56;7279958;19;153404;-52
2021/11/03 11:15:51;;;;;;;;;;;;;;;20.45;48.05;100172.41;7282990;19;151997;-50
2021/11/03 11:18:22;;;;;;;;;;;;;;;20.45;47.96;100176.06;7289909;19;153642;-52
2021/11/03 11:20:54;;;;;;;;;;;;;;;20.45;48.21;100175.22;7285221;19;151797;-50
2021/11/03 11:23:24;;;;;;;;;;;;;;;20.48;47.84;100175.41;7284388;19;151699;-50
2021/11/03 11:25:59;;;;;;;;;;;;;;;20.51;48.10;100173.94;7281960;19;154391;-49
2021/11/03 11:28:34;;;;;;;;;;;;;;;20.51;48.31;100171.13;7284538;19;151808;-50
2021/11/03 11:31:07;;;;;;;;;;;;;;;20.54;48.32;100170.47;7284660;19;152627;-51
2021/11/03 11:33:39;;;;;;;;;;;;;;;20.59;48.14;100168.31;7282308;19;152660;-51
2021/11/03 11:36:26;;;;;;;;;;;;;;;20.62;48.43;100169.66;7281876;19;152021;-51
2021/11/03 11:39:13;;;;;;;;;;;;;;;20.67;48.16;100177.94;7275243;19;153205;-49
2021/11/03 11:42:00;;;;;;;;;;;;;;;20.65;48.64;100166.19;7287715;19;154099;-51
2021/11/03 11:44:30;;;;;;;;;;;;;;;20.66;48.37;100170.66;7280180;19;152051;-51
2021/11/03 11:46:59;;;;;;;;;;;;;;;20.68;48.62;100169.16;7280794;19;153431;-51
2021/11/03 11:49:29;;;;;;;;;;;;;;;20.69;48.18;100168.00;7284812;19;152505;-51
2021/11/03 11:51:58;;;;;;;;;;;;;;;20.72;48.20;100170.16;7279880;19;152616;-51
2021/11/03 11:54:29;;;;;;;;;;;;;;;20.73;48.30;100173.78;7278410;19;153725;-51
2021/11/03 11:56:59;;;;;;;;;;;;;;;20.75;48.12;100169.53;7283278;19;152050;-52
2021/11/03 11:59:45;;;;;;;;;;;;;;;20.76;48.10;100178.75;7282299;19;154868;-52
2021/11/03 12:02:19;;;;;;;;;;;;;;;20.79;48.07;100178.94;7278124;19;153919;-52
2021/11/03 12:04:47;;;;;;;;;;;;;;;20.78;48.16;100185.69;7288663;19;152279;-53
2021/11/03 12:07:16;;;;;;;;;;;;;;;20.79;47.70;100184.53;7280409;19;152678;-51
2021/11/03 12:10:04;;;;;;;;;;;;;;;20.80;47.83;100193.81;7281143;19;151963;-50
2021/11/03 12:12:34;;;;;;;;;;;;;;;20.82;47.68;100194.28;7280575;19;152690;-50
2021/11/03 12:15:01;;;;;;;;;;;;;;;20.82;47.54;100186.69;7279810;19;152526;-50
2021/11/03 12:17:31;;;;;;;;;;;;;;;20.84;47.99;100184.38;7281358;19;152084;-51
2021/11/03 12:19:59;;;;;;;;;;;;;;;20.82;47.87;100189.50;7279046;19;152859;-51
2021/11/03 12:22:46;;;;;;;;;;;;;;;20.81;47.54;100190.66;7280439;19;154151;-51
2021/11/03 12:25:33;;;;;;;;;;;;;;;20.80;47.55;100199.41;7288770;19;151561;-50
2021/11/03 12:28:03;;;;;;;;;;;;;;;20.78;47.95;100196.09;7279532;19;153265;-51
2021/11/03 12:30:34;;;;;;;;;;;;;;;20.76;47.77;100195.59;7280663;19;151816;-50
2021/11/03 12:33:04;;;;;;;;;;;;;;;20.76;47.99;100201.19;7282024;19;152256;-51
2021/11/03 12:35:47;;;;;;;;;;;;;;;20.74;47.84;100197.91;7281811;19;153371;-51
2021/11/03 12:38:33;;;;;;;;;;;;;;;20.72;47.85;100200.22;7280678;19;152213;-51
2021/11/03 12:41:01;;;;;;;;;;;;;;;20.70;47.85;100200.56;7278316;19;152590;-51
2021/11/03 12:43:29;;;;;;;;;;;;;;;20.69;47.89;100206.50;7280361;19;153844;-52